sensor_id;sensor_type;location;lat;lon;timestamp;temperature;humidity
55828;DHT22;41758;51.992;5.890;2023-12-20T00:00:36;11.10;71.50
55828;DHT22;41758;51.992;5.890;2023-12-20T00:03:03;11.20;71.50
55828;DHT22;41758;51.992;5.890;2023-12-20T00:05:29;11.10;71.30
55828;DHT22;41758;51.992;5.890;2023-12-20T00:07:57;11.10;71.40
55828;DHT22;41758;51.992;5.890;2023-12-20T00:10:23;11.10;71.30
55828;DHT22;41758;51.992;5.890;2023-12-20T00:12:49;11.10;71.30
55828;DHT22;41758;51.992;5.890;2023-12-20T00:15:14;11.00;71.30
55828;DHT22;41758;51.992;5.890;2023-12-20T00:17:40;11.00;71.30
55828;DHT22;41758;51.992;5.890;2023-12-20T00:20:06;11.00;71.40
55828;DHT22;41758;51.992;5.890;2023-12-20T00:22:32;11.00;71.50
55828;DHT22;41758;51.992;5.890;2023-12-20T00:24:58;11.00;71.60
55828;DHT22;41758;51.992;5.890;2023-12-20T00:27:24;11.00;71.70
55828;DHT22;41758;51.992;5.890;2023-12-20T00:29:49;11.00;71.50
55828;DHT22;41758;51.992;5.890;2023-12-20T00:32:16;11.00;71.40
55828;DHT22;41758;51.992;5.890;2023-12-20T00:34:42;11.00;71.40
55828;DHT22;41758;51.992;5.890;2023-12-20T00:37:08;11.00;71.30
55828;DHT22;41758;51.992;5.890;2023-12-20T00:39:34;10.90;71.30
55828;DHT22;41758;51.992;5.890;2023-12-20T00:41:59;10.90;71.40
55828;DHT22;41758;51.992;5.890;2023-12-20T00:44:25;10.90;71.30
55828;DHT22;41758;51.992;5.890;2023-12-20T00:46:51;10.80;71.20
55828;DHT22;41758;51.992;5.890;2023-12-20T00:49:17;10.80;71.40
55828;DHT22;41758;51.992;5.890;2023-12-20T00:51:43;10.80;71.40
55828;DHT22;41758;51.992;5.890;2023-12-20T00:54:09;10.80;71.40
55828;DHT22;41758;51.992;5.890;2023-12-20T00:56:35;10.80;71.40
55828;DHT22;41758;51.992;5.890;2023-12-20T00:59:01;10.70;71.40
55828;DHT22;41758;51.992;5.890;2023-12-20T01:01:26;10.70;71.40
55828;DHT22;41758;51.992;5.890;2023-12-20T01:03:52;10.70;71.40
55828;DHT22;41758;51.992;5.890;2023-12-20T01:06:18;10.70;71.40
55828;DHT22;41758;51.992;5.890;2023-12-20T01:08:44;10.70;71.40
55828;DHT22;41758;51.992;5.890;2023-12-20T01:11:10;10.70;71.50
55828;DHT22;41758;51.992;5.890;2023-12-20T01:13:36;10.60;71.30
55828;DHT22;41758;51.992;5.890;2023-12-20T01:16:02;10.60;71.40
55828;DHT22;41758;51.992;5.890;2023-12-20T01:18:28;10.60;71.40
55828;DHT22;41758;51.992;5.890;2023-12-20T01:20:53;10.60;71.40
55828;DHT22;41758;51.992;5.890;2023-12-20T01:23:19;10.60;71.40
55828;DHT22;41758;51.992;5.890;2023-12-20T01:25:45;10.60;71.60
55828;DHT22;41758;51.992;5.890;2023-12-20T01:28:11;10.60;71.60
55828;DHT22;41758;51.992;5.890;2023-12-20T01:30:37;10.60;71.60
55828;DHT22;41758;51.992;5.890;2023-12-20T01:33:03;10.60;71.60
55828;DHT22;41758;51.992;5.890;2023-12-20T01:35:29;10.60;71.40
55828;DHT22;41758;51.992;5.890;2023-12-20T01:37:54;10.60;71.40
55828;DHT22;41758;51.992;5.890;2023-12-20T01:40:22;10.60;71.40
55828;DHT22;41758;51.992;5.890;2023-12-20T01:43:15;10.60;71.40
55828;DHT22;41758;51.992;5.890;2023-12-20T01:45:41;10.50;71.40
55828;DHT22;41758;51.992;5.890;2023-12-20T01:48:07;10.40;71.50
55828;DHT22;41758;51.992;5.890;2023-12-20T01:50:38;10.50;71.50
55828;DHT22;41758;51.992;5.890;2023-12-20T01:53:05;10.50;71.50
55828;DHT22;41758;51.992;5.890;2023-12-20T01:55:35;10.50;71.60
55828;DHT22;41758;51.992;5.890;2023-12-20T01:58:02;10.50;71.50
55828;DHT22;41758;51.992;5.890;2023-12-20T02:00:29;10.50;71.50
55828;DHT22;41758;51.992;5.890;2023-12-20T02:02:55;10.50;71.60
55828;DHT22;41758;51.992;5.890;2023-12-20T02:05:22;10.50;71.70
55828;DHT22;41758;51.992;5.890;2023-12-20T02:07:48;10.50;71.70
55828;DHT22;41758;51.992;5.890;2023-12-20T02:10:13;10.60;71.70
55828;DHT22;41758;51.992;5.890;2023-12-20T02:12:40;10.60;71.70
55828;DHT22;41758;51.992;5.890;2023-12-20T02:15:06;10.60;71.70
55828;DHT22;41758;51.992;5.890;2023-12-20T02:17:32;10.50;71.60
55828;DHT22;41758;51.992;5.890;2023-12-20T02:19:59;10.60;71.50
55828;DHT22;41758;51.992;5.890;2023-12-20T02:22:25;10.50;71.60
55828;DHT22;41758;51.992;5.890;2023-12-20T02:24:50;10.50;71.50
55828;DHT22;41758;51.992;5.890;2023-12-20T02:27:18;10.50;71.50
55828;DHT22;41758;51.992;5.890;2023-12-20T02:29:47;10.50;71.70
55828;DHT22;41758;51.992;5.890;2023-12-20T02:32:13;10.50;71.70
55828;DHT22;41758;51.992;5.890;2023-12-20T02:34:39;10.60;71.70
55828;DHT22;41758;51.992;5.890;2023-12-20T02:37:05;10.60;71.70
55828;DHT22;41758;51.992;5.890;2023-12-20T02:39:30;10.60;71.80
55828;DHT22;41758;51.992;5.890;2023-12-20T02:41:56;10.60;71.80
55828;DHT22;41758;51.992;5.890;2023-12-20T02:44:22;10.70;71.90
55828;DHT22;41758;51.992;5.890;2023-12-20T02:46:47;10.70;71.90
55828;DHT22;41758;51.992;5.890;2023-12-20T02:49:13;10.70;71.90
55828;DHT22;41758;51.992;5.890;2023-12-20T02:51:39;10.70;71.80
55828;DHT22;41758;51.992;5.890;2023-12-20T02:54:04;10.70;71.80
55828;DHT22;41758;51.992;5.890;2023-12-20T02:56:32;10.80;71.90
55828;DHT22;41758;51.992;5.890;2023-12-20T02:58:57;10.80;71.80
55828;DHT22;41758;51.992;5.890;2023-12-20T03:01:23;10.80;71.90
55828;DHT22;41758;51.992;5.890;2023-12-20T03:03:49;10.80;71.90
55828;DHT22;41758;51.992;5.890;2023-12-20T03:06:17;10.90;71.80
55828;DHT22;41758;51.992;5.890;2023-12-20T03:08:43;10.90;71.70
55828;DHT22;41758;51.992;5.890;2023-12-20T03:11:09;10.90;71.70
55828;DHT22;41758;51.992;5.890;2023-12-20T03:13:34;10.90;71.70
55828;DHT22;41758;51.992;5.890;2023-12-20T03:16:00;10.90;71.70
55828;DHT22;41758;51.992;5.890;2023-12-20T03:18:25;10.90;71.60
55828;DHT22;41758;51.992;5.890;2023-12-20T03:20:53;10.90;71.50
55828;DHT22;41758;51.992;5.890;2023-12-20T03:23:19;10.90;71.40
55828;DHT22;41758;51.992;5.890;2023-12-20T03:25:44;10.90;71.40
55828;DHT22;41758;51.992;5.890;2023-12-20T03:28:10;10.80;71.40
55828;DHT22;41758;51.992;5.890;2023-12-20T03:30:36;10.80;71.30
55828;DHT22;41758;51.992;5.890;2023-12-20T03:33:01;10.80;71.30
55828;DHT22;41758;51.992;5.890;2023-12-20T03:35:27;10.80;71.30
55828;DHT22;41758;51.992;5.890;2023-12-20T03:37:53;10.70;71.30
55828;DHT22;41758;51.992;5.890;2023-12-20T03:40:19;10.70;71.40
55828;DHT22;41758;51.992;5.890;2023-12-20T03:42:44;10.70;71.50
55828;DHT22;41758;51.992;5.890;2023-12-20T03:45:10;10.70;71.60
55828;DHT22;41758;51.992;5.890;2023-12-20T03:47:35;10.70;71.50
55828;DHT22;41758;51.992;5.890;2023-12-20T03:50:01;10.70;71.60
55828;DHT22;41758;51.992;5.890;2023-12-20T03:52:27;10.70;71.60
55828;DHT22;41758;51.992;5.890;2023-12-20T03:54:53;10.70;71.60
55828;DHT22;41758;51.992;5.890;2023-12-20T03:57:19;10.70;71.50
55828;DHT22;41758;51.992;5.890;2023-12-20T03:59:44;10.70;71.40
55828;DHT22;41758;51.992;5.890;2023-12-20T04:02:10;10.70;71.50
55828;DHT22;41758;51.992;5.890;2023-12-20T04:04:36;10.70;71.60
55828;DHT22;41758;51.992;5.890;2023-12-20T04:07:01;10.70;71.80
55828;DHT22;41758;51.992;5.890;2023-12-20T04:09:27;10.80;71.80
55828;DHT22;41758;51.992;5.890;2023-12-20T04:11:53;10.80;71.90
55828;DHT22;41758;51.992;5.890;2023-12-20T04:14:18;10.80;71.90
55828;DHT22;41758;51.992;5.890;2023-12-20T04:16:44;10.80;71.70
55828;DHT22;41758;51.992;5.890;2023-12-20T04:19:10;10.80;71.80
55828;DHT22;41758;51.992;5.890;2023-12-20T04:21:35;10.80;72.00
55828;DHT22;41758;51.992;5.890;2023-12-20T04:24:01;10.90;72.00
55828;DHT22;41758;51.992;5.890;2023-12-20T04:26:27;10.90;71.90
55828;DHT22;41758;51.992;5.890;2023-12-20T04:28:52;10.90;71.90
55828;DHT22;41758;51.992;5.890;2023-12-20T04:31:18;10.90;71.70
55828;DHT22;41758;51.992;5.890;2023-12-20T04:33:44;10.90;71.80
55828;DHT22;41758;51.992;5.890;2023-12-20T04:36:09;11.00;71.80
55828;DHT22;41758;51.992;5.890;2023-12-20T04:38:35;11.00;71.80
55828;DHT22;41758;51.992;5.890;2023-12-20T04:41:01;11.10;71.90
55828;DHT22;41758;51.992;5.890;2023-12-20T04:43:26;11.10;71.90
55828;DHT22;41758;51.992;5.890;2023-12-20T04:45:52;11.10;71.90
55828;DHT22;41758;51.992;5.890;2023-12-20T04:48:18;11.10;71.70
55828;DHT22;41758;51.992;5.890;2023-12-20T04:50:44;11.10;71.60
55828;DHT22;41758;51.992;5.890;2023-12-20T04:53:10;11.10;71.70
55828;DHT22;41758;51.992;5.890;2023-12-20T04:55:35;11.10;71.50
55828;DHT22;41758;51.992;5.890;2023-12-20T04:58:02;11.10;71.60
55828;DHT22;41758;51.992;5.890;2023-12-20T05:00:27;11.10;71.70
55828;DHT22;41758;51.992;5.890;2023-12-20T05:02:53;11.10;71.80
55828;DHT22;41758;51.992;5.890;2023-12-20T05:05:20;11.20;71.70
55828;DHT22;41758;51.992;5.890;2023-12-20T05:07:46;11.20;71.90
55828;DHT22;41758;51.992;5.890;2023-12-20T05:10:11;11.30;72.00
55828;DHT22;41758;51.992;5.890;2023-12-20T05:12:37;11.30;71.90
55828;DHT22;41758;51.992;5.890;2023-12-20T05:15:04;11.30;71.90
55828;DHT22;41758;51.992;5.890;2023-12-20T05:17:30;11.30;71.80
55828;DHT22;41758;51.992;5.890;2023-12-20T05:19:55;11.30;71.80
55828;DHT22;41758;51.992;5.890;2023-12-20T05:22:21;11.40;71.80
55828;DHT22;41758;51.992;5.890;2023-12-20T05:24:47;11.40;71.70
55828;DHT22;41758;51.992;5.890;2023-12-20T05:27:12;11.40;71.80
55828;DHT22;41758;51.992;5.890;2023-12-20T05:29:38;11.40;71.70
55828;DHT22;41758;51.992;5.890;2023-12-20T05:32:04;11.40;71.90
55828;DHT22;41758;51.992;5.890;2023-12-20T05:34:30;11.40;71.60
55828;DHT22;41758;51.992;5.890;2023-12-20T05:36:57;11.40;71.90
55828;DHT22;41758;51.992;5.890;2023-12-20T05:39:22;11.50;71.80
55828;DHT22;41758;51.992;5.890;2023-12-20T05:41:48;11.60;71.80
55828;DHT22;41758;51.992;5.890;2023-12-20T05:44:14;11.50;71.90
55828;DHT22;41758;51.992;5.890;2023-12-20T05:46:40;11.50;71.80
55828;DHT22;41758;51.992;5.890;2023-12-20T05:49:06;11.60;71.80
55828;DHT22;41758;51.992;5.890;2023-12-20T05:51:31;11.60;71.70
55828;DHT22;41758;51.992;5.890;2023-12-20T05:53:58;11.60;71.70
55828;DHT22;41758;51.992;5.890;2023-12-20T05:56:24;11.60;71.80
55828;DHT22;41758;51.992;5.890;2023-12-20T05:58:49;11.70;71.60
55828;DHT22;41758;51.992;5.890;2023-12-20T06:01:15;11.70;71.60
55828;DHT22;41758;51.992;5.890;2023-12-20T06:03:43;11.60;71.60
55828;DHT22;41758;51.992;5.890;2023-12-20T06:06:09;11.70;71.70
55828;DHT22;41758;51.992;5.890;2023-12-20T06:08:35;11.70;71.70
55828;DHT22;41758;51.992;5.890;2023-12-20T06:11:01;11.70;71.60
55828;DHT22;41758;51.992;5.890;2023-12-20T06:13:27;11.70;71.60
55828;DHT22;41758;51.992;5.890;2023-12-20T06:15:54;11.70;71.60
55828;DHT22;41758;51.992;5.890;2023-12-20T06:18:21;11.70;71.40
55828;DHT22;41758;51.992;5.890;2023-12-20T06:20:46;11.70;71.50
55828;DHT22;41758;51.992;5.890;2023-12-20T06:23:12;11.70;71.60
55828;DHT22;41758;51.992;5.890;2023-12-20T06:25:38;11.70;71.70
55828;DHT22;41758;51.992;5.890;2023-12-20T06:28:04;11.70;71.70
55828;DHT22;41758;51.992;5.890;2023-12-20T06:30:30;11.70;71.60
55828;DHT22;41758;51.992;5.890;2023-12-20T06:32:58;11.70;71.60
55828;DHT22;41758;51.992;5.890;2023-12-20T06:35:24;11.70;71.50
55828;DHT22;41758;51.992;5.890;2023-12-20T06:37:50;11.70;71.50
55828;DHT22;41758;51.992;5.890;2023-12-20T06:40:16;11.70;71.60
55828;DHT22;41758;51.992;5.890;2023-12-20T06:42:42;11.80;71.50
55828;DHT22;41758;51.992;5.890;2023-12-20T06:45:08;11.70;71.50
55828;DHT22;41758;51.992;5.890;2023-12-20T06:47:33;11.70;71.40
55828;DHT22;41758;51.992;5.890;2023-12-20T06:49:59;11.70;71.50
55828;DHT22;41758;51.992;5.890;2023-12-20T06:52:26;11.70;71.60
55828;DHT22;41758;51.992;5.890;2023-12-20T06:54:52;11.80;71.50
55828;DHT22;41758;51.992;5.890;2023-12-20T06:57:18;11.70;71.50
55828;DHT22;41758;51.992;5.890;2023-12-20T06:59:45;11.70;71.60
55828;DHT22;41758;51.992;5.890;2023-12-20T07:02:11;11.70;71.70
55828;DHT22;41758;51.992;5.890;2023-12-20T07:04:40;11.80;71.80
55828;DHT22;41758;51.992;5.890;2023-12-20T07:07:06;11.70;71.60
55828;DHT22;41758;51.992;5.890;2023-12-20T07:09:33;11.80;71.60
55828;DHT22;41758;51.992;5.890;2023-12-20T07:11:59;11.70;71.50
55828;DHT22;41758;51.992;5.890;2023-12-20T07:14:25;11.80;71.60
55828;DHT22;41758;51.992;5.890;2023-12-20T07:16:50;11.80;71.30
55828;DHT22;41758;51.992;5.890;2023-12-20T07:19:16;11.70;71.50
55828;DHT22;41758;51.992;5.890;2023-12-20T07:21:42;11.70;71.70
55828;DHT22;41758;51.992;5.890;2023-12-20T07:24:07;11.70;71.60
55828;DHT22;41758;51.992;5.890;2023-12-20T07:26:33;11.70;71.70
55828;DHT22;41758;51.992;5.890;2023-12-20T07:28:59;11.80;71.50
55828;DHT22;41758;51.992;5.890;2023-12-20T07:31:25;11.80;71.70
55828;DHT22;41758;51.992;5.890;2023-12-20T07:33:51;11.70;71.70
55828;DHT22;41758;51.992;5.890;2023-12-20T07:36:16;11.80;71.70
55828;DHT22;41758;51.992;5.890;2023-12-20T07:38:42;11.80;71.70
55828;DHT22;41758;51.992;5.890;2023-12-20T07:41:10;11.80;71.80
55828;DHT22;41758;51.992;5.890;2023-12-20T07:43:36;11.80;71.80
55828;DHT22;41758;51.992;5.890;2023-12-20T07:46:08;11.80;71.90
55828;DHT22;41758;51.992;5.890;2023-12-20T07:48:35;11.90;71.70
55828;DHT22;41758;51.992;5.890;2023-12-20T07:51:01;11.80;71.70
55828;DHT22;41758;51.992;5.890;2023-12-20T07:53:27;11.90;71.60
55828;DHT22;41758;51.992;5.890;2023-12-20T07:55:53;11.90;71.50
55828;DHT22;41758;51.992;5.890;2023-12-20T07:58:20;11.90;71.60
55828;DHT22;41758;51.992;5.890;2023-12-20T08:00:45;11.90;71.50
55828;DHT22;41758;51.992;5.890;2023-12-20T08:03:11;11.90;71.70
55828;DHT22;41758;51.992;5.890;2023-12-20T08:05:37;11.90;71.80
55828;DHT22;41758;51.992;5.890;2023-12-20T08:08:06;11.90;71.90
55828;DHT22;41758;51.992;5.890;2023-12-20T08:10:31;11.90;71.90
55828;DHT22;41758;51.992;5.890;2023-12-20T08:12:57;12.00;71.80
55828;DHT22;41758;51.992;5.890;2023-12-20T08:15:23;12.00;71.90
55828;DHT22;41758;51.992;5.890;2023-12-20T08:17:49;12.00;71.90
55828;DHT22;41758;51.992;5.890;2023-12-20T08:20:16;12.00;71.90
55828;DHT22;41758;51.992;5.890;2023-12-20T08:22:42;12.00;71.90
55828;DHT22;41758;51.992;5.890;2023-12-20T08:25:08;12.10;71.70
55828;DHT22;41758;51.992;5.890;2023-12-20T08:27:39;12.10;71.80
55828;DHT22;41758;51.992;5.890;2023-12-20T08:30:05;12.10;71.90
55828;DHT22;41758;51.992;5.890;2023-12-20T08:32:31;12.10;72.00
55828;DHT22;41758;51.992;5.890;2023-12-20T08:34:57;12.10;71.90
55828;DHT22;41758;51.992;5.890;2023-12-20T08:37:23;12.20;71.60
55828;DHT22;41758;51.992;5.890;2023-12-20T08:39:49;12.20;71.50
55828;DHT22;41758;51.992;5.890;2023-12-20T08:42:15;12.10;71.40
55828;DHT22;41758;51.992;5.890;2023-12-20T08:44:40;12.10;71.90
55828;DHT22;41758;51.992;5.890;2023-12-20T08:47:06;12.20;71.90
55828;DHT22;41758;51.992;5.890;2023-12-20T08:49:32;12.20;71.90
55828;DHT22;41758;51.992;5.890;2023-12-20T08:51:57;12.20;71.80
55828;DHT22;41758;51.992;5.890;2023-12-20T08:54:23;12.20;71.90
55828;DHT22;41758;51.992;5.890;2023-12-20T08:56:49;12.20;72.00
55828;DHT22;41758;51.992;5.890;2023-12-20T08:59:14;12.20;72.00
55828;DHT22;41758;51.992;5.890;2023-12-20T09:01:40;12.20;72.10
55828;DHT22;41758;51.992;5.890;2023-12-20T09:04:05;12.20;72.00
55828;DHT22;41758;51.992;5.890;2023-12-20T09:06:32;12.20;72.00
55828;DHT22;41758;51.992;5.890;2023-12-20T09:08:57;12.10;71.80
55828;DHT22;41758;51.992;5.890;2023-12-20T09:11:23;12.10;71.90
55828;DHT22;41758;51.992;5.890;2023-12-20T09:13:49;12.10;72.00
55828;DHT22;41758;51.992;5.890;2023-12-20T09:16:16;12.10;71.90
55828;DHT22;41758;51.992;5.890;2023-12-20T09:18:42;12.10;71.80
55828;DHT22;41758;51.992;5.890;2023-12-20T09:21:08;12.00;71.80
55828;DHT22;41758;51.992;5.890;2023-12-20T09:23:33;12.00;71.60
55828;DHT22;41758;51.992;5.890;2023-12-20T09:25:59;11.90;71.70
55828;DHT22;41758;51.992;5.890;2023-12-20T09:28:25;11.90;71.90
55828;DHT22;41758;51.992;5.890;2023-12-20T09:30:51;11.90;71.90
55828;DHT22;41758;51.992;5.890;2023-12-20T09:33:16;11.90;72.00
55828;DHT22;41758;51.992;5.890;2023-12-20T09:35:42;11.90;72.10
55828;DHT22;41758;51.992;5.890;2023-12-20T09:38:08;11.90;72.20
55828;DHT22;41758;51.992;5.890;2023-12-20T09:40:34;11.90;72.10
55828;DHT22;41758;51.992;5.890;2023-12-20T09:43:04;11.80;72.00
55828;DHT22;41758;51.992;5.890;2023-12-20T09:45:34;11.80;72.20
55828;DHT22;41758;51.992;5.890;2023-12-20T09:48:00;11.80;72.30
55828;DHT22;41758;51.992;5.890;2023-12-20T09:50:26;11.80;72.10
55828;DHT22;41758;51.992;5.890;2023-12-20T09:52:53;11.80;72.20
55828;DHT22;41758;51.992;5.890;2023-12-20T09:55:22;11.80;72.40
55828;DHT22;41758;51.992;5.890;2023-12-20T09:57:48;11.80;72.40
55828;DHT22;41758;51.992;5.890;2023-12-20T10:00:14;11.80;72.30
55828;DHT22;41758;51.992;5.890;2023-12-20T10:02:56;11.80;72.40
55828;DHT22;41758;51.992;5.890;2023-12-20T10:05:27;11.80;72.60
55828;DHT22;41758;51.992;5.890;2023-12-20T10:07:53;11.80;72.40
55828;DHT22;41758;51.992;5.890;2023-12-20T10:10:19;11.80;72.50
55828;DHT22;41758;51.992;5.890;2023-12-20T10:13:08;11.80;72.60
55828;DHT22;41758;51.992;5.890;2023-12-20T10:15:37;11.90;72.70
55828;DHT22;41758;51.992;5.890;2023-12-20T10:18:04;11.90;72.70
55828;DHT22;41758;51.992;5.890;2023-12-20T10:20:31;11.90;72.60
55828;DHT22;41758;51.992;5.890;2023-12-20T10:22:58;11.90;72.60
55828;DHT22;41758;51.992;5.890;2023-12-20T10:25:24;11.90;72.50
55828;DHT22;41758;51.992;5.890;2023-12-20T10:28:11;12.00;72.50
55828;DHT22;41758;51.992;5.890;2023-12-20T10:30:38;12.00;72.60
55828;DHT22;41758;51.992;5.890;2023-12-20T10:33:06;12.00;72.70
55828;DHT22;41758;51.992;5.890;2023-12-20T10:35:32;12.10;72.80
55828;DHT22;41758;51.992;5.890;2023-12-20T10:38:02;12.10;72.90
55828;DHT22;41758;51.992;5.890;2023-12-20T10:40:29;12.10;72.70
55828;DHT22;41758;51.992;5.890;2023-12-20T10:42:56;12.20;72.70
55828;DHT22;41758;51.992;5.890;2023-12-20T10:45:22;12.20;72.70
55828;DHT22;41758;51.992;5.890;2023-12-20T10:47:50;12.20;72.70
55828;DHT22;41758;51.992;5.890;2023-12-20T10:50:17;12.20;72.60
55828;DHT22;41758;51.992;5.890;2023-12-20T10:52:44;12.20;72.60
55828;DHT22;41758;51.992;5.890;2023-12-20T10:55:11;12.20;72.60
55828;DHT22;41758;51.992;5.890;2023-12-20T10:57:37;12.30;72.70
55828;DHT22;41758;51.992;5.890;2023-12-20T11:00:03;12.30;72.70
55828;DHT22;41758;51.992;5.890;2023-12-20T11:02:39;12.30;72.70
55828;DHT22;41758;51.992;5.890;2023-12-20T11:07:40;12.30;72.80
55828;DHT22;41758;51.992;5.890;2023-12-20T11:10:25;12.40;72.70
55828;DHT22;41758;51.992;5.890;2023-12-20T11:15:18;12.40;72.80
55828;DHT22;41758;51.992;5.890;2023-12-20T11:17:55;12.40;72.80
55828;DHT22;41758;51.992;5.890;2023-12-20T11:20:23;12.50;72.80
55828;DHT22;41758;51.992;5.890;2023-12-20T11:22:53;12.50;72.80
55828;DHT22;41758;51.992;5.890;2023-12-20T11:25:20;12.50;72.80
55828;DHT22;41758;51.992;5.890;2023-12-20T11:28:06;12.60;72.80
55828;DHT22;41758;51.992;5.890;2023-12-20T11:30:46;12.60;72.60
55828;DHT22;41758;51.992;5.890;2023-12-20T11:33:16;12.60;72.60
55828;DHT22;41758;51.992;5.890;2023-12-20T11:35:45;12.60;72.70
55828;DHT22;41758;51.992;5.890;2023-12-20T11:38:11;12.70;72.80
55828;DHT22;41758;51.992;5.890;2023-12-20T11:40:38;12.70;72.90
55828;DHT22;41758;51.992;5.890;2023-12-20T11:43:06;12.70;72.90
55828;DHT22;41758;51.992;5.890;2023-12-20T11:45:32;12.80;73.00
55828;DHT22;41758;51.992;5.890;2023-12-20T11:47:58;12.80;72.90
55828;DHT22;41758;51.992;5.890;2023-12-20T11:50:24;12.90;72.80
55828;DHT22;41758;51.992;5.890;2023-12-20T11:52:51;12.90;72.70
55828;DHT22;41758;51.992;5.890;2023-12-20T11:55:17;12.90;72.60
55828;DHT22;41758;51.992;5.890;2023-12-20T11:57:43;13.00;72.50
55828;DHT22;41758;51.992;5.890;2023-12-20T12:00:10;13.00;72.40
55828;DHT22;41758;51.992;5.890;2023-12-20T12:02:39;13.00;72.40
55828;DHT22;41758;51.992;5.890;2023-12-20T12:05:05;12.90;72.40
55828;DHT22;41758;51.992;5.890;2023-12-20T12:07:32;13.00;72.40
55828;DHT22;41758;51.992;5.890;2023-12-20T12:09:57;13.10;72.40
55828;DHT22;41758;51.992;5.890;2023-12-20T12:12:23;13.10;72.10
55828;DHT22;41758;51.992;5.890;2023-12-20T12:14:50;13.10;72.00
55828;DHT22;41758;51.992;5.890;2023-12-20T12:17:16;13.10;72.10
55828;DHT22;41758;51.992;5.890;2023-12-20T12:19:42;13.10;72.20
55828;DHT22;41758;51.992;5.890;2023-12-20T12:22:12;13.10;71.80
55828;DHT22;41758;51.992;5.890;2023-12-20T12:24:43;13.10;71.60
55828;DHT22;41758;51.992;5.890;2023-12-20T12:27:09;13.00;72.00
55828;DHT22;41758;51.992;5.890;2023-12-20T12:29:36;13.10;72.20
55828;DHT22;41758;51.992;5.890;2023-12-20T12:32:08;13.10;72.20
55828;DHT22;41758;51.992;5.890;2023-12-20T12:34:35;13.10;72.30
55828;DHT22;41758;51.992;5.890;2023-12-20T12:37:01;13.20;72.10
55828;DHT22;41758;51.992;5.890;2023-12-20T12:39:27;13.20;72.20
55828;DHT22;41758;51.992;5.890;2023-12-20T12:41:56;13.20;71.70
55828;DHT22;41758;51.992;5.890;2023-12-20T12:44:22;13.20;71.80
55828;DHT22;41758;51.992;5.890;2023-12-20T12:46:51;13.20;71.90
55828;DHT22;41758;51.992;5.890;2023-12-20T12:49:19;13.20;71.80
55828;DHT22;41758;51.992;5.890;2023-12-20T12:51:45;13.20;71.90
55828;DHT22;41758;51.992;5.890;2023-12-20T12:56:39;13.10;71.90
55828;DHT22;41758;51.992;5.890;2023-12-20T12:59:05;13.10;71.80
55828;DHT22;41758;51.992;5.890;2023-12-20T13:01:31;13.10;71.80
55828;DHT22;41758;51.992;5.890;2023-12-20T13:03:57;13.00;71.90
55828;DHT22;41758;51.992;5.890;2023-12-20T13:06:23;13.00;72.10
55828;DHT22;41758;51.992;5.890;2023-12-20T13:08:49;13.00;72.00
55828;DHT22;41758;51.992;5.890;2023-12-20T13:11:15;13.00;72.10
55828;DHT22;41758;51.992;5.890;2023-12-20T13:13:40;13.00;72.30
55828;DHT22;41758;51.992;5.890;2023-12-20T13:16:07;13.00;72.30
55828;DHT22;41758;51.992;5.890;2023-12-20T13:18:33;13.00;72.40
55828;DHT22;41758;51.992;5.890;2023-12-20T13:20:58;13.10;72.40
55828;DHT22;41758;51.992;5.890;2023-12-20T13:23:24;13.10;72.60
55828;DHT22;41758;51.992;5.890;2023-12-20T13:25:50;13.10;72.60
55828;DHT22;41758;51.992;5.890;2023-12-20T13:28:15;13.10;72.50
55828;DHT22;41758;51.992;5.890;2023-12-20T13:30:41;13.20;72.50
55828;DHT22;41758;51.992;5.890;2023-12-20T13:33:07;13.20;72.30
55828;DHT22;41758;51.992;5.890;2023-12-20T13:35:34;13.30;72.30
55828;DHT22;41758;51.992;5.890;2023-12-20T13:38:00;13.30;72.10
55828;DHT22;41758;51.992;5.890;2023-12-20T13:40:26;13.30;72.10
55828;DHT22;41758;51.992;5.890;2023-12-20T13:42:52;13.30;72.10
55828;DHT22;41758;51.992;5.890;2023-12-20T13:45:17;13.30;72.10
55828;DHT22;41758;51.992;5.890;2023-12-20T13:47:43;13.30;72.10
55828;DHT22;41758;51.992;5.890;2023-12-20T13:50:09;13.30;71.90
55828;DHT22;41758;51.992;5.890;2023-12-20T13:52:35;13.30;71.90
55828;DHT22;41758;51.992;5.890;2023-12-20T13:55:01;13.30;71.80
55828;DHT22;41758;51.992;5.890;2023-12-20T13:57:27;13.30;72.00
55828;DHT22;41758;51.992;5.890;2023-12-20T13:59:55;13.30;72.00
55828;DHT22;41758;51.992;5.890;2023-12-20T14:02:23;13.30;72.10
55828;DHT22;41758;51.992;5.890;2023-12-20T14:04:49;13.30;72.00
55828;DHT22;41758;51.992;5.890;2023-12-20T14:07:14;13.40;72.00
55828;DHT22;41758;51.992;5.890;2023-12-20T14:09:41;13.30;72.10
55828;DHT22;41758;51.992;5.890;2023-12-20T14:12:11;13.40;71.90
55828;DHT22;41758;51.992;5.890;2023-12-20T14:14:37;13.40;71.70
55828;DHT22;41758;51.992;5.890;2023-12-20T14:17:03;13.30;71.90
55828;DHT22;41758;51.992;5.890;2023-12-20T14:19:29;13.40;71.70
55828;DHT22;41758;51.992;5.890;2023-12-20T14:21:55;13.30;71.70
55828;DHT22;41758;51.992;5.890;2023-12-20T14:24:21;13.30;71.70
55828;DHT22;41758;51.992;5.890;2023-12-20T14:26:46;13.30;71.60
55828;DHT22;41758;51.992;5.890;2023-12-20T14:29:12;13.30;71.70
55828;DHT22;41758;51.992;5.890;2023-12-20T14:31:38;13.30;71.90
55828;DHT22;41758;51.992;5.890;2023-12-20T14:34:04;13.30;71.80
55828;DHT22;41758;51.992;5.890;2023-12-20T14:36:30;13.30;71.70
55828;DHT22;41758;51.992;5.890;2023-12-20T14:38:56;13.30;71.80
55828;DHT22;41758;51.992;5.890;2023-12-20T14:41:22;13.30;71.80
55828;DHT22;41758;51.992;5.890;2023-12-20T14:43:53;13.30;71.60
55828;DHT22;41758;51.992;5.890;2023-12-20T14:46:19;13.30;71.40
55828;DHT22;41758;51.992;5.890;2023-12-20T14:48:44;13.30;71.50
55828;DHT22;41758;51.992;5.890;2023-12-20T14:51:10;13.30;71.80
55828;DHT22;41758;51.992;5.890;2023-12-20T14:53:37;13.30;71.70
55828;DHT22;41758;51.992;5.890;2023-12-20T14:56:04;13.30;71.80
55828;DHT22;41758;51.992;5.890;2023-12-20T14:58:31;13.30;71.50
55828;DHT22;41758;51.992;5.890;2023-12-20T15:00:57;13.40;71.50
55828;DHT22;41758;51.992;5.890;2023-12-20T15:03:23;13.30;71.50
55828;DHT22;41758;51.992;5.890;2023-12-20T15:05:49;13.30;71.60
55828;DHT22;41758;51.992;5.890;2023-12-20T15:08:15;13.30;71.30
55828;DHT22;41758;51.992;5.890;2023-12-20T15:10:41;13.30;71.40
55828;DHT22;41758;51.992;5.890;2023-12-20T15:13:07;13.30;71.40
55828;DHT22;41758;51.992;5.890;2023-12-20T15:15:33;13.30;71.50
55828;DHT22;41758;51.992;5.890;2023-12-20T15:18:02;13.30;71.70
55828;DHT22;41758;51.992;5.890;2023-12-20T15:20:30;13.30;71.70
55828;DHT22;41758;51.992;5.890;2023-12-20T15:22:59;13.30;71.70
55828;DHT22;41758;51.992;5.890;2023-12-20T15:25:30;13.30;71.80
55828;DHT22;41758;51.992;5.890;2023-12-20T15:27:56;13.30;71.70
55828;DHT22;41758;51.992;5.890;2023-12-20T15:30:21;13.30;71.70
55828;DHT22;41758;51.992;5.890;2023-12-20T15:32:49;13.30;71.60